Terminal Aerodrome Forecast
Issued by NWS

Home | Current Version | Previous Version | Graphics & Text | Print | Product List | Glossary On
Versions: 1 2 3 4 5 6 7 8 9 10 11 12 13 14 15 16 17 18 19 20 21 22 23 24 25 26 27
000
FTUS43 KLSX 260900 AAC
TAFSUS
TAF AMD
KSUS 260905Z 2609/2706 17010KT P6SM SCT015 OVC100
      TEMPO 2611/2613 6SM -SHRA
     FM261300 20012G22KT P6SM SCT025 BKN100=

USA.gov is the U.S. government's official web portal to all federal, state and local government web resources and services.